sensor_id;sensor_type;location;lat;lon;timestamp;temperature;humidity
5226;DHT22;2632;51.666;7.146;2022-11-20T00:01:26;15.40;89.70
5226;DHT22;2632;51.666;7.146;2022-11-20T00:03:54;15.40;89.60
5226;DHT22;2632;51.666;7.146;2022-11-20T00:06:21;15.40;89.70
5226;DHT22;2632;51.666;7.146;2022-11-20T00:08:50;15.40;89.70
5226;DHT22;2632;51.666;7.146;2022-11-20T00:11:19;15.40;89.80
5226;DHT22;2632;51.666;7.146;2022-11-20T00:13:49;15.40;89.80
5226;DHT22;2632;51.666;7.146;2022-11-20T00:16:19;15.40;89.90
5226;DHT22;2632;51.666;7.146;2022-11-20T00:18:46;15.40;89.90
5226;DHT22;2632;51.666;7.146;2022-11-20T00:21:18;15.30;89.90
5226;DHT22;2632;51.666;7.146;2022-11-20T00:23:48;15.30;89.90
5226;DHT22;2632;51.666;7.146;2022-11-20T00:26:17;15.30;89.90
5226;DHT22;2632;51.666;7.146;2022-11-20T00:28:53;15.30;89.80
5226;DHT22;2632;51.666;7.146;2022-11-20T00:31:19;15.30;89.70
5226;DHT22;2632;51.666;7.146;2022-11-20T00:33:46;15.40;89.80
5226;DHT22;2632;51.666;7.146;2022-11-20T00:36:15;15.40;89.60
5226;DHT22;2632;51.666;7.146;2022-11-20T00:38:42;15.40;89.70
5226;DHT22;2632;51.666;7.146;2022-11-20T00:41:11;15.40;89.70
5226;DHT22;2632;51.666;7.146;2022-11-20T00:43:38;15.40;89.70
5226;DHT22;2632;51.666;7.146;2022-11-20T00:46:25;15.40;89.70
5226;DHT22;2632;51.666;7.146;2022-11-20T00:48:52;15.40;89.80
5226;DHT22;2632;51.666;7.146;2022-11-20T00:51:21;15.40;89.70
5226;DHT22;2632;51.666;7.146;2022-11-20T00:53:48;15.40;89.70
5226;DHT22;2632;51.666;7.146;2022-11-20T00:56:18;15.30;89.70
5226;DHT22;2632;51.666;7.146;2022-11-20T00:58:46;15.30;89.70
5226;DHT22;2632;51.666;7.146;2022-11-20T01:01:14;15.30;89.60
5226;DHT22;2632;51.666;7.146;2022-11-20T01:03:44;15.30;89.70
5226;DHT22;2632;51.666;7.146;2022-11-20T01:06:12;15.30;89.70
5226;DHT22;2632;51.666;7.146;2022-11-20T01:08:39;15.30;89.70
5226;DHT22;2632;51.666;7.146;2022-11-20T01:11:08;15.30;89.80
5226;DHT22;2632;51.666;7.146;2022-11-20T01:13:36;15.30;89.80
5226;DHT22;2632;51.666;7.146;2022-11-20T01:16:14;15.30;89.70
5226;DHT22;2632;51.666;7.146;2022-11-20T01:18:44;15.30;89.70
5226;DHT22;2632;51.666;7.146;2022-11-20T01:21:13;15.30;89.70
5226;DHT22;2632;51.666;7.146;2022-11-20T01:23:41;15.30;89.70
5226;DHT22;2632;51.666;7.146;2022-11-20T01:26:11;15.30;89.80
5226;DHT22;2632;51.666;7.146;2022-11-20T01:28:39;15.20;89.60
5226;DHT22;2632;51.666;7.146;2022-11-20T01:33:44;15.30;89.80
5226;DHT22;2632;51.666;7.146;2022-11-20T01:36:12;15.30;89.80
5226;DHT22;2632;51.666;7.146;2022-11-20T01:38:39;15.20;89.70
5226;DHT22;2632;51.666;7.146;2022-11-20T01:41:06;15.20;89.80
5226;DHT22;2632;51.666;7.146;2022-11-20T01:43:33;15.20;90.10
5226;DHT22;2632;51.666;7.146;2022-11-20T01:46:17;15.30;89.80
5226;DHT22;2632;51.666;7.146;2022-11-20T01:51:42;15.20;89.70
5226;DHT22;2632;51.666;7.146;2022-11-20T01:54:15;15.20;89.80
5226;DHT22;2632;51.666;7.146;2022-11-20T01:56:44;15.20;89.80
5226;DHT22;2632;51.666;7.146;2022-11-20T01:59:14;15.20;89.80
5226;DHT22;2632;51.666;7.146;2022-11-20T02:01:41;15.20;89.80
5226;DHT22;2632;51.666;7.146;2022-11-20T02:04:08;15.20;89.70
5226;DHT22;2632;51.666;7.146;2022-11-20T02:09:08;15.20;89.70
5226;DHT22;2632;51.666;7.146;2022-11-20T02:11:35;15.20;89.70
5226;DHT22;2632;51.666;7.146;2022-11-20T02:14:02;15.20;89.70
5226;DHT22;2632;51.666;7.146;2022-11-20T02:16:35;15.20;89.70
5226;DHT22;2632;51.666;7.146;2022-11-20T02:19:09;15.20;89.70
5226;DHT22;2632;51.666;7.146;2022-11-20T02:24:21;15.10;89.70
5226;DHT22;2632;51.666;7.146;2022-11-20T02:26:50;15.20;89.80
5226;DHT22;2632;51.666;7.146;2022-11-20T02:29:23;15.10;89.80
5226;DHT22;2632;51.666;7.146;2022-11-20T02:31:50;15.20;89.80
5226;DHT22;2632;51.666;7.146;2022-11-20T02:34:17;15.10;89.70
5226;DHT22;2632;51.666;7.146;2022-11-20T02:36:44;15.20;89.80
5226;DHT22;2632;51.666;7.146;2022-11-20T02:39:13;15.10;89.70
5226;DHT22;2632;51.666;7.146;2022-11-20T02:41:43;15.10;89.80
5226;DHT22;2632;51.666;7.146;2022-11-20T02:44:10;15.10;89.80
5226;DHT22;2632;51.666;7.146;2022-11-20T02:46:37;15.20;89.80
5226;DHT22;2632;51.666;7.146;2022-11-20T02:49:04;15.20;89.70
5226;DHT22;2632;51.666;7.146;2022-11-20T02:51:31;15.20;89.70
5226;DHT22;2632;51.666;7.146;2022-11-20T02:53:58;15.20;89.70
5226;DHT22;2632;51.666;7.146;2022-11-20T02:56:25;15.30;89.60
5226;DHT22;2632;51.666;7.146;2022-11-20T02:58:52;15.30;89.70
5226;DHT22;2632;51.666;7.146;2022-11-20T03:01:18;15.30;89.70
5226;DHT22;2632;51.666;7.146;2022-11-20T03:03:45;15.30;89.70
5226;DHT22;2632;51.666;7.146;2022-11-20T03:06:12;15.30;89.80
5226;DHT22;2632;51.666;7.146;2022-11-20T03:08:38;15.30;89.80
5226;DHT22;2632;51.666;7.146;2022-11-20T03:11:06;15.30;89.90
5226;DHT22;2632;51.666;7.146;2022-11-20T03:13:34;15.30;90.00
5226;DHT22;2632;51.666;7.146;2022-11-20T03:16:11;15.30;90.00
5226;DHT22;2632;51.666;7.146;2022-11-20T03:18:39;15.30;90.00
5226;DHT22;2632;51.666;7.146;2022-11-20T03:21:07;15.30;90.10
5226;DHT22;2632;51.666;7.146;2022-11-20T03:23:35;15.30;90.10
5226;DHT22;2632;51.666;7.146;2022-11-20T03:26:14;15.30;90.10
5226;DHT22;2632;51.666;7.146;2022-11-20T03:28:45;15.30;90.20
5226;DHT22;2632;51.666;7.146;2022-11-20T03:31:15;15.30;90.20
5226;DHT22;2632;51.666;7.146;2022-11-20T03:33:42;15.30;90.20
5226;DHT22;2632;51.666;7.146;2022-11-20T03:36:11;15.30;90.20
5226;DHT22;2632;51.666;7.146;2022-11-20T03:38:38;15.30;90.20
5226;DHT22;2632;51.666;7.146;2022-11-20T03:41:08;15.30;90.20
5226;DHT22;2632;51.666;7.146;2022-11-20T03:43:35;15.30;90.20
5226;DHT22;2632;51.666;7.146;2022-11-20T03:46:02;15.40;90.20
5226;DHT22;2632;51.666;7.146;2022-11-20T03:48:29;15.40;90.20
5226;DHT22;2632;51.666;7.146;2022-11-20T03:51:12;15.40;90.10
5226;DHT22;2632;51.666;7.146;2022-11-20T03:53:40;15.40;90.00
5226;DHT22;2632;51.666;7.146;2022-11-20T03:56:09;15.40;90.00
5226;DHT22;2632;51.666;7.146;2022-11-20T03:58:36;15.50;89.90
5226;DHT22;2632;51.666;7.146;2022-11-20T04:03:35;15.50;89.50
5226;DHT22;2632;51.666;7.146;2022-11-20T04:06:06;15.60;89.40
5226;DHT22;2632;51.666;7.146;2022-11-20T04:08:33;15.60;89.30
5226;DHT22;2632;51.666;7.146;2022-11-20T04:11:15;15.60;89.20
5226;DHT22;2632;51.666;7.146;2022-11-20T04:13:42;15.60;89.10
5226;DHT22;2632;51.666;7.146;2022-11-20T04:16:11;15.70;89.00
5226;DHT22;2632;51.666;7.146;2022-11-20T04:18:38;15.70;88.90
5226;DHT22;2632;51.666;7.146;2022-11-20T04:21:05;15.70;88.90
5226;DHT22;2632;51.666;7.146;2022-11-20T04:23:32;15.60;88.80
5226;DHT22;2632;51.666;7.146;2022-11-20T04:26:08;15.70;88.90
5226;DHT22;2632;51.666;7.146;2022-11-20T04:28:35;15.60;88.90
5226;DHT22;2632;51.666;7.146;2022-11-20T04:31:10;15.60;88.80
5226;DHT22;2632;51.666;7.146;2022-11-20T04:33:37;15.60;88.90
5226;DHT22;2632;51.666;7.146;2022-11-20T04:36:14;15.60;89.00
5226;DHT22;2632;51.666;7.146;2022-11-20T04:38:42;15.60;89.00
5226;DHT22;2632;51.666;7.146;2022-11-20T04:41:19;15.60;89.20
5226;DHT22;2632;51.666;7.146;2022-11-20T04:43:50;15.60;89.30
5226;DHT22;2632;51.666;7.146;2022-11-20T04:46:18;15.50;89.40
5226;DHT22;2632;51.666;7.146;2022-11-20T04:48:46;15.40;89.50
5226;DHT22;2632;51.666;7.146;2022-11-20T04:51:13;15.40;89.60
5226;DHT22;2632;51.666;7.146;2022-11-20T04:53:40;15.40;89.70
5226;DHT22;2632;51.666;7.146;2022-11-20T04:56:08;15.40;89.80
5226;DHT22;2632;51.666;7.146;2022-11-20T04:58:36;15.40;89.90
5226;DHT22;2632;51.666;7.146;2022-11-20T05:03:31;15.40;90.00
5226;DHT22;2632;51.666;7.146;2022-11-20T05:06:01;15.30;90.00
5226;DHT22;2632;51.666;7.146;2022-11-20T05:08:29;15.30;90.00
5226;DHT22;2632;51.666;7.146;2022-11-20T05:11:06;15.30;90.00
5226;DHT22;2632;51.666;7.146;2022-11-20T05:13:33;15.30;90.00
5226;DHT22;2632;51.666;7.146;2022-11-20T05:16:04;15.30;90.00
5226;DHT22;2632;51.666;7.146;2022-11-20T05:18:32;15.30;90.00
5226;DHT22;2632;51.666;7.146;2022-11-20T05:20:59;15.30;90.00
5226;DHT22;2632;51.666;7.146;2022-11-20T05:23:26;15.30;89.90
5226;DHT22;2632;51.666;7.146;2022-11-20T05:25:54;15.30;89.90
5226;DHT22;2632;51.666;7.146;2022-11-20T05:28:25;15.30;89.90
5226;DHT22;2632;51.666;7.146;2022-11-20T05:30:52;15.30;89.90
5226;DHT22;2632;51.666;7.146;2022-11-20T05:33:18;15.30;89.80
5226;DHT22;2632;51.666;7.146;2022-11-20T05:35:45;15.40;89.80
5226;DHT22;2632;51.666;7.146;2022-11-20T05:38:12;15.40;89.70
5226;DHT22;2632;51.666;7.146;2022-11-20T05:40:38;15.40;89.70
5226;DHT22;2632;51.666;7.146;2022-11-20T05:43:05;15.40;89.60
5226;DHT22;2632;51.666;7.146;2022-11-20T05:45:32;15.40;89.50
5226;DHT22;2632;51.666;7.146;2022-11-20T05:47:59;15.40;89.50
5226;DHT22;2632;51.666;7.146;2022-11-20T05:50:29;15.40;89.40
5226;DHT22;2632;51.666;7.146;2022-11-20T05:52:58;15.40;89.40
5226;DHT22;2632;51.666;7.146;2022-11-20T05:55:26;15.40;89.40
5226;DHT22;2632;51.666;7.146;2022-11-20T05:57:54;15.40;89.40
5226;DHT22;2632;51.666;7.146;2022-11-20T06:00:21;15.40;89.40
5226;DHT22;2632;51.666;7.146;2022-11-20T06:02:47;15.40;89.40
5226;DHT22;2632;51.666;7.146;2022-11-20T06:05:14;15.40;89.40
5226;DHT22;2632;51.666;7.146;2022-11-20T06:07:41;15.40;89.30
5226;DHT22;2632;51.666;7.146;2022-11-20T06:10:08;15.40;89.30
5226;DHT22;2632;51.666;7.146;2022-11-20T06:12:34;15.40;89.30
5226;DHT22;2632;51.666;7.146;2022-11-20T06:15:01;15.40;89.30
5226;DHT22;2632;51.666;7.146;2022-11-20T06:17:27;15.40;89.30
5226;DHT22;2632;51.666;7.146;2022-11-20T06:19:54;15.40;89.20
5226;DHT22;2632;51.666;7.146;2022-11-20T06:22:21;15.40;89.20
5226;DHT22;2632;51.666;7.146;2022-11-20T06:24:47;15.40;89.30
5226;DHT22;2632;51.666;7.146;2022-11-20T06:27:14;15.40;89.30
5226;DHT22;2632;51.666;7.146;2022-11-20T06:29:41;15.40;89.40
5226;DHT22;2632;51.666;7.146;2022-11-20T06:32:08;15.40;89.40
5226;DHT22;2632;51.666;7.146;2022-11-20T06:34:34;14.40;88.20
5226;DHT22;2632;51.666;7.146;2022-11-20T06:37:01;14.70;90.70
5226;DHT22;2632;51.666;7.146;2022-11-20T06:39:28;15.00;90.30
5226;DHT22;2632;51.666;7.146;2022-11-20T06:41:54;15.10;90.00
5226;DHT22;2632;51.666;7.146;2022-11-20T06:44:25;15.20;90.00
5226;DHT22;2632;51.666;7.146;2022-11-20T06:46:51;15.30;89.80
5226;DHT22;2632;51.666;7.146;2022-11-20T06:49:18;15.40;89.70
5226;DHT22;2632;51.666;7.146;2022-11-20T06:51:45;15.30;88.80
5226;DHT22;2632;51.666;7.146;2022-11-20T06:54:11;15.30;89.60
5226;DHT22;2632;51.666;7.146;2022-11-20T06:56:38;15.40;89.60
5226;DHT22;2632;51.666;7.146;2022-11-20T06:59:06;15.40;89.50
5226;DHT22;2632;51.666;7.146;2022-11-20T07:01:32;15.50;89.50
5226;DHT22;2632;51.666;7.146;2022-11-20T07:03:59;15.40;89.50
5226;DHT22;2632;51.666;7.146;2022-11-20T07:06:26;15.40;89.60
5226;DHT22;2632;51.666;7.146;2022-11-20T07:08:52;15.40;89.70
5226;DHT22;2632;51.666;7.146;2022-11-20T07:11:19;15.40;89.60
5226;DHT22;2632;51.666;7.146;2022-11-20T07:13:45;15.50;89.60
5226;DHT22;2632;51.666;7.146;2022-11-20T07:16:12;15.50;89.50
5226;DHT22;2632;51.666;7.146;2022-11-20T07:18:39;15.50;89.60
5226;DHT22;2632;51.666;7.146;2022-11-20T07:21:09;15.50;89.50
5226;DHT22;2632;51.666;7.146;2022-11-20T07:23:36;15.50;89.60
5226;DHT22;2632;51.666;7.146;2022-11-20T07:26:07;15.50;89.70
5226;DHT22;2632;51.666;7.146;2022-11-20T07:28:35;15.50;89.70
5226;DHT22;2632;51.666;7.146;2022-11-20T07:31:02;15.60;89.60
5226;DHT22;2632;51.666;7.146;2022-11-20T07:33:29;15.50;89.60
5226;DHT22;2632;51.666;7.146;2022-11-20T07:35:59;15.50;89.50
5226;DHT22;2632;51.666;7.146;2022-11-20T07:38:26;15.50;89.50
5226;DHT22;2632;51.666;7.146;2022-11-20T07:40:58;12.30;61.80
5226;DHT22;2632;51.666;7.146;2022-11-20T07:43:27;11.00;80.80
5226;DHT22;2632;51.666;7.146;2022-11-20T07:45:59;11.80;89.80
5226;DHT22;2632;51.666;7.146;2022-11-20T07:48:26;12.70;88.60
5226;DHT22;2632;51.666;7.146;2022-11-20T07:50:56;13.30;86.50
5226;DHT22;2632;51.666;7.146;2022-11-20T07:53:23;13.90;85.00
5226;DHT22;2632;51.666;7.146;2022-11-20T07:55:50;14.20;84.10
5226;DHT22;2632;51.666;7.146;2022-11-20T07:58:19;14.40;83.50
5226;DHT22;2632;51.666;7.146;2022-11-20T08:00:46;14.60;83.30
5226;DHT22;2632;51.666;7.146;2022-11-20T08:03:13;14.70;83.60
5226;DHT22;2632;51.666;7.146;2022-11-20T08:05:40;14.80;83.80
5226;DHT22;2632;51.666;7.146;2022-11-20T08:08:06;14.80;84.00
5226;DHT22;2632;51.666;7.146;2022-11-20T08:10:34;14.80;84.80
5226;DHT22;2632;51.666;7.146;2022-11-20T08:13:00;14.90;84.60
5226;DHT22;2632;51.666;7.146;2022-11-20T08:15:49;14.90;84.80
5226;DHT22;2632;51.666;7.146;2022-11-20T08:18:19;15.00;85.10
5226;DHT22;2632;51.666;7.146;2022-11-20T08:21:04;15.00;85.30
5226;DHT22;2632;51.666;7.146;2022-11-20T08:23:31;15.00;85.60
5226;DHT22;2632;51.666;7.146;2022-11-20T08:25:57;14.90;82.10
5226;DHT22;2632;51.666;7.146;2022-11-20T08:28:24;14.50;86.80
5226;DHT22;2632;51.666;7.146;2022-11-20T08:30:50;14.70;87.30
5226;DHT22;2632;51.666;7.146;2022-11-20T08:33:17;14.90;87.10
5226;DHT22;2632;51.666;7.146;2022-11-20T08:35:44;15.10;86.90
5226;DHT22;2632;51.666;7.146;2022-11-20T08:38:11;15.10;86.80
5226;DHT22;2632;51.666;7.146;2022-11-20T08:40:38;15.30;86.70
5226;DHT22;2632;51.666;7.146;2022-11-20T08:43:04;15.40;86.60
5226;DHT22;2632;51.666;7.146;2022-11-20T08:45:31;15.40;86.50
5226;DHT22;2632;51.666;7.146;2022-11-20T08:48:02;15.50;86.70
5226;DHT22;2632;51.666;7.146;2022-11-20T08:50:29;15.60;86.70
5226;DHT22;2632;51.666;7.146;2022-11-20T08:53:04;15.60;86.90
5226;DHT22;2632;51.666;7.146;2022-11-20T08:55:31;15.70;87.20
5226;DHT22;2632;51.666;7.146;2022-11-20T08:57:58;15.70;87.20
5226;DHT22;2632;51.666;7.146;2022-11-20T09:00:29;15.70;87.50
5226;DHT22;2632;51.666;7.146;2022-11-20T09:02:55;15.70;87.70
5226;DHT22;2632;51.666;7.146;2022-11-20T09:05:22;15.80;87.70
5226;DHT22;2632;51.666;7.146;2022-11-20T09:07:48;15.70;87.80
5226;DHT22;2632;51.666;7.146;2022-11-20T09:10:15;15.70;87.90
5226;DHT22;2632;51.666;7.146;2022-11-20T09:12:54;15.80;88.10
5226;DHT22;2632;51.666;7.146;2022-11-20T09:15:22;15.50;80.50
5226;DHT22;2632;51.666;7.146;2022-11-20T09:17:52;15.40;89.20
5226;DHT22;2632;51.666;7.146;2022-11-20T09:20:19;15.60;88.80
5226;DHT22;2632;51.666;7.146;2022-11-20T09:22:46;15.60;88.70
5226;DHT22;2632;51.666;7.146;2022-11-20T09:25:12;15.70;88.50
5226;DHT22;2632;51.666;7.146;2022-11-20T09:27:39;15.70;88.30
5226;DHT22;2632;51.666;7.146;2022-11-20T09:30:08;15.70;88.50
5226;DHT22;2632;51.666;7.146;2022-11-20T09:32:34;15.70;88.50
5226;DHT22;2632;51.666;7.146;2022-11-20T09:35:02;15.70;88.70
5226;DHT22;2632;51.666;7.146;2022-11-20T09:37:29;13.60;66.60
5226;DHT22;2632;51.666;7.146;2022-11-20T09:39:55;11.10;70.60
5226;DHT22;2632;51.666;7.146;2022-11-20T09:45:23;11.30;86.50
5226;DHT22;2632;51.666;7.146;2022-11-20T09:48:12;12.30;85.70
5226;DHT22;2632;51.666;7.146;2022-11-20T09:54:22;13.50;83.50
5226;DHT22;2632;51.666;7.146;2022-11-20T09:56:23;13.90;82.80
5226;DHT22;2632;51.666;7.146;2022-11-20T09:58:52;14.20;82.60
5226;DHT22;2632;51.666;7.146;2022-11-20T10:01:30;14.40;82.40
5226;DHT22;2632;51.666;7.146;2022-11-20T10:04:04;14.50;80.40
5226;DHT22;2632;51.666;7.146;2022-11-20T10:09:40;14.70;83.20
5226;DHT22;2632;51.666;7.146;2022-11-20T10:12:35;14.80;83.50
5226;DHT22;2632;51.666;7.146;2022-11-20T10:15:22;14.80;83.60
5226;DHT22;2632;51.666;7.146;2022-11-20T10:18:05;14.70;83.80
5226;DHT22;2632;51.666;7.146;2022-11-20T10:27:23;15.10;84.30
5226;DHT22;2632;51.666;7.146;2022-11-20T10:30:02;15.20;84.30
5226;DHT22;2632;51.666;7.146;2022-11-20T10:32:34;15.40;84.30
5226;DHT22;2632;51.666;7.146;2022-11-20T10:35:34;15.50;84.20
5226;DHT22;2632;51.666;7.146;2022-11-20T10:38:28;15.50;84.10
5226;DHT22;2632;51.666;7.146;2022-11-20T10:40:56;15.60;84.10
5226;DHT22;2632;51.666;7.146;2022-11-20T10:43:48;15.70;84.10
5226;DHT22;2632;51.666;7.146;2022-11-20T10:46:20;15.70;84.20
5226;DHT22;2632;51.666;7.146;2022-11-20T10:48:48;15.80;84.30
5226;DHT22;2632;51.666;7.146;2022-11-20T10:56:40;15.90;84.40
5226;DHT22;2632;51.666;7.146;2022-11-20T11:02:23;15.80;84.80
5226;DHT22;2632;51.666;7.146;2022-11-20T11:04:52;15.80;85.00
5226;DHT22;2632;51.666;7.146;2022-11-20T11:07:31;15.80;85.30
5226;DHT22;2632;51.666;7.146;2022-11-20T11:09:59;15.80;85.30
5226;DHT22;2632;51.666;7.146;2022-11-20T11:12:28;15.80;85.30
5226;DHT22;2632;51.666;7.146;2022-11-20T11:14:57;15.80;85.40
5226;DHT22;2632;51.666;7.146;2022-11-20T11:17:34;15.80;85.50
5226;DHT22;2632;51.666;7.146;2022-11-20T11:20:02;15.80;85.70
5226;DHT22;2632;51.666;7.146;2022-11-20T11:22:39;15.80;85.90
5226;DHT22;2632;51.666;7.146;2022-11-20T11:25:24;15.80;86.00
5226;DHT22;2632;51.666;7.146;2022-11-20T11:27:51;15.70;86.20
5226;DHT22;2632;51.666;7.146;2022-11-20T11:30:20;15.70;86.40
5226;DHT22;2632;51.666;7.146;2022-11-20T11:32:47;15.70;86.50
5226;DHT22;2632;51.666;7.146;2022-11-20T11:35:27;15.70;86.60
5226;DHT22;2632;51.666;7.146;2022-11-20T11:38:02;15.70;86.80
5226;DHT22;2632;51.666;7.146;2022-11-20T11:40:32;15.70;86.90
5226;DHT22;2632;51.666;7.146;2022-11-20T11:43:02;15.60;87.10
5226;DHT22;2632;51.666;7.146;2022-11-20T11:45:31;15.60;87.20
5226;DHT22;2632;51.666;7.146;2022-11-20T11:47:58;15.60;87.20
5226;DHT22;2632;51.666;7.146;2022-11-20T11:50:28;15.60;87.20
5226;DHT22;2632;51.666;7.146;2022-11-20T11:53:08;15.60;87.30
5226;DHT22;2632;51.666;7.146;2022-11-20T12:06:43;15.70;87.10
5226;DHT22;2632;51.666;7.146;2022-11-20T12:09:11;15.80;87.10
5226;DHT22;2632;51.666;7.146;2022-11-20T12:11:55;15.80;87.10
5226;DHT22;2632;51.666;7.146;2022-11-20T12:14:37;15.90;87.00
5226;DHT22;2632;51.666;7.146;2022-11-20T12:17:04;15.90;86.90
5226;DHT22;2632;51.666;7.146;2022-11-20T12:19:39;15.90;87.00
5226;DHT22;2632;51.666;7.146;2022-11-20T12:22:37;16.00;87.00
5226;DHT22;2632;51.666;7.146;2022-11-20T12:25:25;16.10;87.10
5226;DHT22;2632;51.666;7.146;2022-11-20T12:28:32;16.10;87.20
5226;DHT22;2632;51.666;7.146;2022-11-20T12:34:13;16.00;87.70
5226;DHT22;2632;51.666;7.146;2022-11-20T12:36:52;16.10;87.60
5226;DHT22;2632;51.666;7.146;2022-11-20T12:45:12;16.00;87.80
5226;DHT22;2632;51.666;7.146;2022-11-20T12:53:19;16.10;88.40
5226;DHT22;2632;51.666;7.146;2022-11-20T12:55:42;16.10;88.50
5226;DHT22;2632;51.666;7.146;2022-11-20T12:58:22;16.10;88.60
5226;DHT22;2632;51.666;7.146;2022-11-20T13:06:54;16.10;88.60
5226;DHT22;2632;51.666;7.146;2022-11-20T13:09:22;16.10;88.50
5226;DHT22;2632;51.666;7.146;2022-11-20T13:12:23;16.10;88.60
5226;DHT22;2632;51.666;7.146;2022-11-20T13:17:41;16.10;88.80
5226;DHT22;2632;51.666;7.146;2022-11-20T13:20:18;16.10;88.90
5226;DHT22;2632;51.666;7.146;2022-11-20T13:22:50;16.10;88.90
5226;DHT22;2632;51.666;7.146;2022-11-20T13:25:28;16.20;88.90
5226;DHT22;2632;51.666;7.146;2022-11-20T13:27:57;16.10;89.00
5226;DHT22;2632;51.666;7.146;2022-11-20T13:30:26;16.10;89.00
5226;DHT22;2632;51.666;7.146;2022-11-20T13:32:58;16.10;89.00
5226;DHT22;2632;51.666;7.146;2022-11-20T13:38:03;16.10;89.10
5226;DHT22;2632;51.666;7.146;2022-11-20T13:40:30;16.10;89.20
5226;DHT22;2632;51.666;7.146;2022-11-20T13:43:08;16.00;89.30
5226;DHT22;2632;51.666;7.146;2022-11-20T13:45:36;16.10;89.30
5226;DHT22;2632;51.666;7.146;2022-11-20T13:48:20;16.00;89.30
5226;DHT22;2632;51.666;7.146;2022-11-20T13:54:30;16.00;89.40
5226;DHT22;2632;51.666;7.146;2022-11-20T13:57:06;16.10;89.40
5226;DHT22;2632;51.666;7.146;2022-11-20T13:59:44;16.10;89.40
5226;DHT22;2632;51.666;7.146;2022-11-20T14:02:16;16.00;89.40
5226;DHT22;2632;51.666;7.146;2022-11-20T14:04:49;16.10;89.40
5226;DHT22;2632;51.666;7.146;2022-11-20T14:07:19;16.00;89.30
5226;DHT22;2632;51.666;7.146;2022-11-20T14:10:05;16.00;89.40
5226;DHT22;2632;51.666;7.146;2022-11-20T14:12:33;16.00;89.50
5226;DHT22;2632;51.666;7.146;2022-11-20T14:15:00;16.00;89.60
5226;DHT22;2632;51.666;7.146;2022-11-20T14:17:34;16.00;89.60
5226;DHT22;2632;51.666;7.146;2022-11-20T14:20:06;16.00;89.60
5226;DHT22;2632;51.666;7.146;2022-11-20T14:22:38;16.00;89.60
5226;DHT22;2632;51.666;7.146;2022-11-20T14:25:19;16.00;89.50
5226;DHT22;2632;51.666;7.146;2022-11-20T14:27:52;16.00;89.50
5226;DHT22;2632;51.666;7.146;2022-11-20T14:30:22;16.00;89.40
5226;DHT22;2632;51.666;7.146;2022-11-20T14:32:49;16.00;89.50
5226;DHT22;2632;51.666;7.146;2022-11-20T14:35:28;16.00;89.40
5226;DHT22;2632;51.666;7.146;2022-11-20T14:37:56;15.80;88.40
5226;DHT22;2632;51.666;7.146;2022-11-20T14:40:25;15.40;75.80
5226;DHT22;2632;51.666;7.146;2022-11-20T14:42:52;13.20;76.90
5226;DHT22;2632;51.666;7.146;2022-11-20T14:45:19;13.20;90.30
5226;DHT22;2632;51.666;7.146;2022-11-20T14:47:46;13.90;90.10
5226;DHT22;2632;51.666;7.146;2022-11-20T14:50:26;14.50;88.50
5226;DHT22;2632;51.666;7.146;2022-11-20T14:52:56;15.00;87.20
5226;DHT22;2632;51.666;7.146;2022-11-20T14:55:37;15.30;86.60
5226;DHT22;2632;51.666;7.146;2022-11-20T14:58:06;15.50;86.30
5226;DHT22;2632;51.666;7.146;2022-11-20T15:00:34;15.60;86.40
5226;DHT22;2632;51.666;7.146;2022-11-20T15:03:01;15.70;86.60
5226;DHT22;2632;51.666;7.146;2022-11-20T15:05:48;15.80;86.90
5226;DHT22;2632;51.666;7.146;2022-11-20T15:08:16;15.80;87.10
5226;DHT22;2632;51.666;7.146;2022-11-20T15:10:48;15.90;87.20
5226;DHT22;2632;51.666;7.146;2022-11-20T15:13:36;15.90;86.90
5226;DHT22;2632;51.666;7.146;2022-11-20T15:16:12;16.00;86.90
5226;DHT22;2632;51.666;7.146;2022-11-20T15:18:41;16.00;87.20
5226;DHT22;2632;51.666;7.146;2022-11-20T15:21:11;16.00;86.90
5226;DHT22;2632;51.666;7.146;2022-11-20T15:23:38;16.10;86.90
5226;DHT22;2632;51.666;7.146;2022-11-20T15:26:09;16.00;86.90
5226;DHT22;2632;51.666;7.146;2022-11-20T15:28:45;16.00;87.00
5226;DHT22;2632;51.666;7.146;2022-11-20T15:31:19;16.00;87.30
5226;DHT22;2632;51.666;7.146;2022-11-20T15:33:46;16.00;87.50
5226;DHT22;2632;51.666;7.146;2022-11-20T15:36:13;16.00;87.60
5226;DHT22;2632;51.666;7.146;2022-11-20T15:38:40;16.00;87.70
5226;DHT22;2632;51.666;7.146;2022-11-20T15:41:07;16.00;87.70
5226;DHT22;2632;51.666;7.146;2022-11-20T15:43:33;15.80;80.30
5226;DHT22;2632;51.666;7.146;2022-11-20T15:46:03;15.50;88.60
5226;DHT22;2632;51.666;7.146;2022-11-20T15:48:41;15.70;88.50
5226;DHT22;2632;51.666;7.146;2022-11-20T15:53:59;15.90;88.00
5226;DHT22;2632;51.666;7.146;2022-11-20T15:56:26;15.80;88.00
5226;DHT22;2632;51.666;7.146;2022-11-20T15:58:52;15.80;88.10
5226;DHT22;2632;51.666;7.146;2022-11-20T16:01:21;15.80;88.10
5226;DHT22;2632;51.666;7.146;2022-11-20T16:03:48;15.80;88.10
5226;DHT22;2632;51.666;7.146;2022-11-20T16:06:15;15.80;88.10
5226;DHT22;2632;51.666;7.146;2022-11-20T16:08:42;15.80;88.20
5226;DHT22;2632;51.666;7.146;2022-11-20T16:11:13;15.80;88.20
5226;DHT22;2632;51.666;7.146;2022-11-20T16:13:41;15.80;88.20
5226;DHT22;2632;51.666;7.146;2022-11-20T16:16:34;15.80;88.20
5226;DHT22;2632;51.666;7.146;2022-11-20T16:19:01;15.70;88.20
5226;DHT22;2632;51.666;7.146;2022-11-20T16:21:28;15.70;88.30
5226;DHT22;2632;51.666;7.146;2022-11-20T16:24:04;15.70;88.30
5226;DHT22;2632;51.666;7.146;2022-11-20T16:26:32;15.40;88.50
5226;DHT22;2632;51.666;7.146;2022-11-20T16:29:00;15.50;88.60
5226;DHT22;2632;51.666;7.146;2022-11-20T16:31:27;15.60;88.60
5226;DHT22;2632;51.666;7.146;2022-11-20T16:33:56;15.60;88.60
5226;DHT22;2632;51.666;7.146;2022-11-20T16:36:24;15.70;88.30
5226;DHT22;2632;51.666;7.146;2022-11-20T16:38:55;15.80;88.40
5226;DHT22;2632;51.666;7.146;2022-11-20T16:41:23;15.80;88.40
5226;DHT22;2632;51.666;7.146;2022-11-20T16:43:53;15.70;88.30
5226;DHT22;2632;51.666;7.146;2022-11-20T16:46:21;15.80;88.60
5226;DHT22;2632;51.666;7.146;2022-11-20T16:49:01;15.70;88.60
5226;DHT22;2632;51.666;7.146;2022-11-20T16:51:31;15.80;88.60
5226;DHT22;2632;51.666;7.146;2022-11-20T16:54:06;15.80;88.60
5226;DHT22;2632;51.666;7.146;2022-11-20T16:56:34;15.80;88.60
5226;DHT22;2632;51.666;7.146;2022-11-20T16:59:01;15.50;89.40
5226;DHT22;2632;51.666;7.146;2022-11-20T17:01:28;15.70;89.20
5226;DHT22;2632;51.666;7.146;2022-11-20T17:03:56;15.80;88.90
5226;DHT22;2632;51.666;7.146;2022-11-20T17:06:25;15.80;88.90
5226;DHT22;2632;51.666;7.146;2022-11-20T17:08:54;15.80;88.90
5226;DHT22;2632;51.666;7.146;2022-11-20T17:11:21;15.80;88.90
5226;DHT22;2632;51.666;7.146;2022-11-20T17:13:48;15.80;88.90
5226;DHT22;2632;51.666;7.146;2022-11-20T17:16:17;15.80;88.90
5226;DHT22;2632;51.666;7.146;2022-11-20T17:18:44;15.80;89.00
5226;DHT22;2632;51.666;7.146;2022-11-20T17:21:12;15.80;89.00
5226;DHT22;2632;51.666;7.146;2022-11-20T17:23:43;15.80;89.10
5226;DHT22;2632;51.666;7.146;2022-11-20T17:26:15;15.70;89.00
5226;DHT22;2632;51.666;7.146;2022-11-20T17:29:03;15.70;89.30
5226;DHT22;2632;51.666;7.146;2022-11-20T17:31:32;15.80;89.30
5226;DHT22;2632;51.666;7.146;2022-11-20T17:33:59;15.80;89.30
5226;DHT22;2632;51.666;7.146;2022-11-20T17:36:28;15.70;89.30
5226;DHT22;2632;51.666;7.146;2022-11-20T17:38:54;15.70;89.30
5226;DHT22;2632;51.666;7.146;2022-11-20T17:41:23;15.70;89.40
5226;DHT22;2632;51.666;7.146;2022-11-20T17:43:58;15.80;89.40
5226;DHT22;2632;51.666;7.146;2022-11-20T17:46:30;15.80;89.40